sensor_id;sensor_type;location;lat;lon;timestamp;temperature;humidity
2124;DHT22;1068;52.460;13.528;2023-09-08T00:01:46;19.40;99.90
2124;DHT22;1068;52.460;13.528;2023-09-08T00:04:13;19.40;99.90
2124;DHT22;1068;52.460;13.528;2023-09-08T00:06:40;19.40;99.90
2124;DHT22;1068;52.460;13.528;2023-09-08T00:09:06;19.30;99.90
2124;DHT22;1068;52.460;13.528;2023-09-08T00:11:33;19.40;99.90
2124;DHT22;1068;52.460;13.528;2023-09-08T00:13:59;19.40;99.90
2124;DHT22;1068;52.460;13.528;2023-09-08T00:16:26;19.40;99.90
2124;DHT22;1068;52.460;13.528;2023-09-08T00:18:56;19.30;99.90
2124;DHT22;1068;52.460;13.528;2023-09-08T00:21:24;19.40;99.90
2124;DHT22;1068;52.460;13.528;2023-09-08T00:23:50;19.30;99.90
2124;DHT22;1068;52.460;13.528;2023-09-08T00:26:17;19.30;99.90
2124;DHT22;1068;52.460;13.528;2023-09-08T00:28:43;19.30;99.90
2124;DHT22;1068;52.460;13.528;2023-09-08T00:31:10;19.30;99.90
2124;DHT22;1068;52.460;13.528;2023-09-08T00:33:36;19.20;99.90
2124;DHT22;1068;52.460;13.528;2023-09-08T00:36:04;19.20;99.90
2124;DHT22;1068;52.460;13.528;2023-09-08T00:38:31;19.20;99.90
2124;DHT22;1068;52.460;13.528;2023-09-08T00:40:57;19.20;99.90
2124;DHT22;1068;52.460;13.528;2023-09-08T00:43:26;19.20;99.90
2124;DHT22;1068;52.460;13.528;2023-09-08T00:45:54;19.20;99.90
2124;DHT22;1068;52.460;13.528;2023-09-08T00:48:21;19.10;99.90
2124;DHT22;1068;52.460;13.528;2023-09-08T00:50:48;19.10;99.90
2124;DHT22;1068;52.460;13.528;2023-09-08T00:53:15;19.10;99.90
2124;DHT22;1068;52.460;13.528;2023-09-08T00:55:42;19.10;99.90
2124;DHT22;1068;52.460;13.528;2023-09-08T00:58:09;19.00;99.90
2124;DHT22;1068;52.460;13.528;2023-09-08T01:00:37;19.00;99.90
2124;DHT22;1068;52.460;13.528;2023-09-08T01:03:04;19.00;99.90
2124;DHT22;1068;52.460;13.528;2023-09-08T01:05:30;19.00;99.90
2124;DHT22;1068;52.460;13.528;2023-09-08T01:07:58;19.00;99.90
2124;DHT22;1068;52.460;13.528;2023-09-08T01:10:26;18.90;99.90
2124;DHT22;1068;52.460;13.528;2023-09-08T01:12:53;19.00;99.90
2124;DHT22;1068;52.460;13.528;2023-09-08T01:15:20;18.80;99.90
2124;DHT22;1068;52.460;13.528;2023-09-08T01:17:46;18.80;99.90
2124;DHT22;1068;52.460;13.528;2023-09-08T01:20:17;18.80;99.90
2124;DHT22;1068;52.460;13.528;2023-09-08T01:23:01;18.80;99.90
2124;DHT22;1068;52.460;13.528;2023-09-08T01:25:32;18.80;99.90
2124;DHT22;1068;52.460;13.528;2023-09-08T01:28:00;18.70;99.90
2124;DHT22;1068;52.460;13.528;2023-09-08T01:30:30;18.70;99.90
2124;DHT22;1068;52.460;13.528;2023-09-08T01:32:58;18.70;99.90
2124;DHT22;1068;52.460;13.528;2023-09-08T01:35:25;18.70;99.90
2124;DHT22;1068;52.460;13.528;2023-09-08T01:37:52;18.60;99.90
2124;DHT22;1068;52.460;13.528;2023-09-08T01:40:18;18.60;99.90
2124;DHT22;1068;52.460;13.528;2023-09-08T01:42:47;18.60;99.90
2124;DHT22;1068;52.460;13.528;2023-09-08T01:45:13;18.70;99.90
2124;DHT22;1068;52.460;13.528;2023-09-08T01:47:40;18.60;99.90
2124;DHT22;1068;52.460;13.528;2023-09-08T01:50:07;18.50;99.90
2124;DHT22;1068;52.460;13.528;2023-09-08T01:52:33;18.40;99.90
2124;DHT22;1068;52.460;13.528;2023-09-08T01:55:00;18.40;99.90
2124;DHT22;1068;52.460;13.528;2023-09-08T01:57:26;18.20;99.90
2124;DHT22;1068;52.460;13.528;2023-09-08T01:59:54;18.20;99.90
2124;DHT22;1068;52.460;13.528;2023-09-08T02:02:21;18.10;99.90
2124;DHT22;1068;52.460;13.528;2023-09-08T02:04:48;18.20;99.90
2124;DHT22;1068;52.460;13.528;2023-09-08T02:07:14;18.20;99.90
2124;DHT22;1068;52.460;13.528;2023-09-08T02:09:41;18.20;99.90
2124;DHT22;1068;52.460;13.528;2023-09-08T02:12:08;18.20;99.90
2124;DHT22;1068;52.460;13.528;2023-09-08T02:14:34;18.10;99.90
2124;DHT22;1068;52.460;13.528;2023-09-08T02:17:02;18.10;99.90
2124;DHT22;1068;52.460;13.528;2023-09-08T02:19:29;18.10;99.90
2124;DHT22;1068;52.460;13.528;2023-09-08T02:21:56;18.10;99.90
2124;DHT22;1068;52.460;13.528;2023-09-08T02:24:22;18.10;99.90
2124;DHT22;1068;52.460;13.528;2023-09-08T02:26:49;18.10;99.90
2124;DHT22;1068;52.460;13.528;2023-09-08T02:29:15;18.10;99.90
2124;DHT22;1068;52.460;13.528;2023-09-08T02:31:42;18.10;99.90
2124;DHT22;1068;52.460;13.528;2023-09-08T02:34:10;18.10;99.90
2124;DHT22;1068;52.460;13.528;2023-09-08T02:36:37;18.10;99.90
2124;DHT22;1068;52.460;13.528;2023-09-08T02:39:04;17.80;99.90
2124;DHT22;1068;52.460;13.528;2023-09-08T02:41:30;17.60;99.90
2124;DHT22;1068;52.460;13.528;2023-09-08T02:43:56;17.60;99.90
2124;DHT22;1068;52.460;13.528;2023-09-08T02:46:23;17.70;99.90
2124;DHT22;1068;52.460;13.528;2023-09-08T02:48:49;17.80;99.90
2124;DHT22;1068;52.460;13.528;2023-09-08T02:51:17;17.80;99.90
2124;DHT22;1068;52.460;13.528;2023-09-08T02:53:44;17.80;99.90
2124;DHT22;1068;52.460;13.528;2023-09-08T02:56:10;17.80;99.90
2124;DHT22;1068;52.460;13.528;2023-09-08T02:58:37;17.80;99.90
2124;DHT22;1068;52.460;13.528;2023-09-08T03:01:10;17.90;99.90
2124;DHT22;1068;52.460;13.528;2023-09-08T03:03:39;17.80;99.90
2124;DHT22;1068;52.460;13.528;2023-09-08T03:06:05;17.80;99.90
2124;DHT22;1068;52.460;13.528;2023-09-08T03:08:33;17.80;99.90
2124;DHT22;1068;52.460;13.528;2023-09-08T03:10:59;17.90;99.90
2124;DHT22;1068;52.460;13.528;2023-09-08T03:13:26;17.90;99.90
2124;DHT22;1068;52.460;13.528;2023-09-08T03:15:54;17.90;99.90
2124;DHT22;1068;52.460;13.528;2023-09-08T03:18:20;17.80;99.90
2124;DHT22;1068;52.460;13.528;2023-09-08T03:20:48;17.80;99.90
2124;DHT22;1068;52.460;13.528;2023-09-08T03:23:15;17.80;99.90
2124;DHT22;1068;52.460;13.528;2023-09-08T03:25:43;17.80;99.90
2124;DHT22;1068;52.460;13.528;2023-09-08T03:28:09;17.80;99.90
2124;DHT22;1068;52.460;13.528;2023-09-08T03:30:36;17.70;99.90
2124;DHT22;1068;52.460;13.528;2023-09-08T03:33:02;17.70;99.90
2124;DHT22;1068;52.460;13.528;2023-09-08T03:35:29;17.70;99.90
2124;DHT22;1068;52.460;13.528;2023-09-08T03:37:55;17.70;99.90
2124;DHT22;1068;52.460;13.528;2023-09-08T03:40:22;17.70;99.90
2124;DHT22;1068;52.460;13.528;2023-09-08T03:42:50;17.70;99.90
2124;DHT22;1068;52.460;13.528;2023-09-08T03:45:16;17.70;99.90
2124;DHT22;1068;52.460;13.528;2023-09-08T03:47:43;17.70;99.90
2124;DHT22;1068;52.460;13.528;2023-09-08T03:50:09;17.70;99.90
2124;DHT22;1068;52.460;13.528;2023-09-08T03:52:36;17.70;99.90
2124;DHT22;1068;52.460;13.528;2023-09-08T03:55:03;17.70;99.90
2124;DHT22;1068;52.460;13.528;2023-09-08T03:57:30;17.70;99.90
2124;DHT22;1068;52.460;13.528;2023-09-08T03:59:57;17.70;99.90
2124;DHT22;1068;52.460;13.528;2023-09-08T04:02:24;17.60;99.90
2124;DHT22;1068;52.460;13.528;2023-09-08T04:04:50;17.60;99.90
2124;DHT22;1068;52.460;13.528;2023-09-08T04:07:17;17.60;99.90
2124;DHT22;1068;52.460;13.528;2023-09-08T04:09:43;17.60;99.90
2124;DHT22;1068;52.460;13.528;2023-09-08T04:12:10;17.60;99.90
2124;DHT22;1068;52.460;13.528;2023-09-08T04:14:37;17.60;99.90
2124;DHT22;1068;52.460;13.528;2023-09-08T04:17:04;17.60;99.90
2124;DHT22;1068;52.460;13.528;2023-09-08T04:19:31;17.50;99.90
2124;DHT22;1068;52.460;13.528;2023-09-08T04:21:58;17.50;99.90
2124;DHT22;1068;52.460;13.528;2023-09-08T04:24:24;17.50;99.90
2124;DHT22;1068;52.460;13.528;2023-09-08T04:26:51;17.50;99.90
2124;DHT22;1068;52.460;13.528;2023-09-08T04:29:18;17.50;99.90
2124;DHT22;1068;52.460;13.528;2023-09-08T04:31:45;17.50;99.90
2124;DHT22;1068;52.460;13.528;2023-09-08T04:34:12;17.50;99.90
2124;DHT22;1068;52.460;13.528;2023-09-08T04:36:39;17.50;99.90
2124;DHT22;1068;52.460;13.528;2023-09-08T04:39:05;17.50;99.90
2124;DHT22;1068;52.460;13.528;2023-09-08T04:41:34;17.50;99.90
2124;DHT22;1068;52.460;13.528;2023-09-08T04:44:00;17.50;99.90
2124;DHT22;1068;52.460;13.528;2023-09-08T04:46:27;17.50;99.90
2124;DHT22;1068;52.460;13.528;2023-09-08T04:48:54;17.50;99.90
2124;DHT22;1068;52.460;13.528;2023-09-08T04:51:21;17.50;99.90
2124;DHT22;1068;52.460;13.528;2023-09-08T04:53:48;17.40;99.90
2124;DHT22;1068;52.460;13.528;2023-09-08T04:56:14;17.50;99.90
2124;DHT22;1068;52.460;13.528;2023-09-08T04:58:41;17.40;99.90
2124;DHT22;1068;52.460;13.528;2023-09-08T05:01:07;17.50;99.90
2124;DHT22;1068;52.460;13.528;2023-09-08T05:03:34;17.50;99.90
2124;DHT22;1068;52.460;13.528;2023-09-08T05:06:00;17.50;99.90
2124;DHT22;1068;52.460;13.528;2023-09-08T05:08:28;17.50;99.90
2124;DHT22;1068;52.460;13.528;2023-09-08T05:10:55;17.50;99.90
2124;DHT22;1068;52.460;13.528;2023-09-08T05:13:21;17.50;99.90
2124;DHT22;1068;52.460;13.528;2023-09-08T05:15:52;17.60;99.90
2124;DHT22;1068;52.460;13.528;2023-09-08T05:18:25;17.60;99.90
2124;DHT22;1068;52.460;13.528;2023-09-08T05:20:52;17.60;99.90
2124;DHT22;1068;52.460;13.528;2023-09-08T05:23:18;17.60;99.90
2124;DHT22;1068;52.460;13.528;2023-09-08T05:25:46;17.70;99.90
2124;DHT22;1068;52.460;13.528;2023-09-08T05:28:12;17.70;99.90
2124;DHT22;1068;52.460;13.528;2023-09-08T05:30:39;17.70;99.90
2124;DHT22;1068;52.460;13.528;2023-09-08T05:33:06;17.80;99.90
2124;DHT22;1068;52.460;13.528;2023-09-08T05:35:32;17.70;99.90
2124;DHT22;1068;52.460;13.528;2023-09-08T05:37:59;17.70;99.90
2124;DHT22;1068;52.460;13.528;2023-09-08T05:40:25;17.80;99.90
2124;DHT22;1068;52.460;13.528;2023-09-08T05:42:53;17.80;99.90
2124;DHT22;1068;52.460;13.528;2023-09-08T05:45:20;17.70;99.90
2124;DHT22;1068;52.460;13.528;2023-09-08T05:47:47;17.80;99.90
2124;DHT22;1068;52.460;13.528;2023-09-08T05:50:14;17.80;99.90
2124;DHT22;1068;52.460;13.528;2023-09-08T05:52:41;17.80;99.90
2124;DHT22;1068;52.460;13.528;2023-09-08T05:55:07;17.80;99.90
2124;DHT22;1068;52.460;13.528;2023-09-08T05:57:34;18.00;99.90
2124;DHT22;1068;52.460;13.528;2023-09-08T06:00:02;18.00;99.90
2124;DHT22;1068;52.460;13.528;2023-09-08T06:02:29;18.10;99.90
2124;DHT22;1068;52.460;13.528;2023-09-08T06:04:55;18.10;99.90
2124;DHT22;1068;52.460;13.528;2023-09-08T06:07:22;18.10;99.90
2124;DHT22;1068;52.460;13.528;2023-09-08T06:09:48;18.20;99.90
2124;DHT22;1068;52.460;13.528;2023-09-08T06:12:15;18.20;99.90
2124;DHT22;1068;52.460;13.528;2023-09-08T06:14:41;18.30;99.90
2124;DHT22;1068;52.460;13.528;2023-09-08T06:17:09;18.40;99.90
2124;DHT22;1068;52.460;13.528;2023-09-08T06:19:36;18.50;99.90
2124;DHT22;1068;52.460;13.528;2023-09-08T06:22:03;18.60;99.90
2124;DHT22;1068;52.460;13.528;2023-09-08T06:24:29;18.70;99.90
2124;DHT22;1068;52.460;13.528;2023-09-08T06:26:56;18.80;99.90
2124;DHT22;1068;52.460;13.528;2023-09-08T06:29:22;19.00;99.90
2124;DHT22;1068;52.460;13.528;2023-09-08T06:31:49;19.20;99.90
2124;DHT22;1068;52.460;13.528;2023-09-08T06:34:16;19.30;99.90
2124;DHT22;1068;52.460;13.528;2023-09-08T06:36:46;19.40;99.90
2124;DHT22;1068;52.460;13.528;2023-09-08T06:39:12;19.60;99.90
2124;DHT22;1068;52.460;13.528;2023-09-08T06:41:39;19.70;99.90
2124;DHT22;1068;52.460;13.528;2023-09-08T06:44:05;19.70;99.90
2124;DHT22;1068;52.460;13.528;2023-09-08T06:46:32;19.80;99.90
2124;DHT22;1068;52.460;13.528;2023-09-08T06:48:58;19.90;99.90
2124;DHT22;1068;52.460;13.528;2023-09-08T06:51:26;20.00;99.90
2124;DHT22;1068;52.460;13.528;2023-09-08T06:53:56;20.10;99.90
2124;DHT22;1068;52.460;13.528;2023-09-08T06:56:25;20.30;99.90
2124;DHT22;1068;52.460;13.528;2023-09-08T06:58:51;20.50;99.90
2124;DHT22;1068;52.460;13.528;2023-09-08T07:01:18;20.50;99.90
2124;DHT22;1068;52.460;13.528;2023-09-08T07:03:44;20.50;99.90
2124;DHT22;1068;52.460;13.528;2023-09-08T07:06:11;20.60;99.90
2124;DHT22;1068;52.460;13.528;2023-09-08T07:08:39;20.70;99.90
2124;DHT22;1068;52.460;13.528;2023-09-08T07:11:05;20.90;99.90
2124;DHT22;1068;52.460;13.528;2023-09-08T07:13:31;21.00;99.90
2124;DHT22;1068;52.460;13.528;2023-09-08T07:15:58;21.20;99.90
2124;DHT22;1068;52.460;13.528;2023-09-08T07:18:25;21.40;99.90
2124;DHT22;1068;52.460;13.528;2023-09-08T07:20:51;21.50;99.90
2124;DHT22;1068;52.460;13.528;2023-09-08T07:23:18;21.50;99.90
2124;DHT22;1068;52.460;13.528;2023-09-08T07:25:49;21.60;99.90
2124;DHT22;1068;52.460;13.528;2023-09-08T07:28:16;21.80;99.90
2124;DHT22;1068;52.460;13.528;2023-09-08T07:30:43;21.90;99.90
2124;DHT22;1068;52.460;13.528;2023-09-08T07:33:10;22.10;99.90
2124;DHT22;1068;52.460;13.528;2023-09-08T07:35:36;22.20;99.90
2124;DHT22;1068;52.460;13.528;2023-09-08T07:38:03;22.40;99.90
2124;DHT22;1068;52.460;13.528;2023-09-08T07:40:31;22.40;99.90
2124;DHT22;1068;52.460;13.528;2023-09-08T07:42:59;22.40;99.90
2124;DHT22;1068;52.460;13.528;2023-09-08T07:45:25;22.30;99.90
2124;DHT22;1068;52.460;13.528;2023-09-08T07:47:52;22.40;99.90
2124;DHT22;1068;52.460;13.528;2023-09-08T07:50:20;22.40;99.90
2124;DHT22;1068;52.460;13.528;2023-09-08T07:52:47;22.50;99.90
2124;DHT22;1068;52.460;13.528;2023-09-08T07:55:14;22.40;99.90
2124;DHT22;1068;52.460;13.528;2023-09-08T07:57:41;22.50;99.90
2124;DHT22;1068;52.460;13.528;2023-09-08T08:00:10;22.60;99.90
2124;DHT22;1068;52.460;13.528;2023-09-08T08:02:37;22.70;99.90
2124;DHT22;1068;52.460;13.528;2023-09-08T08:05:04;22.80;99.90
2124;DHT22;1068;52.460;13.528;2023-09-08T08:07:31;22.80;99.90
2124;DHT22;1068;52.460;13.528;2023-09-08T08:09:58;23.00;99.90
2124;DHT22;1068;52.460;13.528;2023-09-08T08:12:24;23.10;99.90
2124;DHT22;1068;52.460;13.528;2023-09-08T08:14:51;23.30;99.90
2124;DHT22;1068;52.460;13.528;2023-09-08T08:17:18;23.40;99.90
2124;DHT22;1068;52.460;13.528;2023-09-08T08:19:45;23.60;99.90
2124;DHT22;1068;52.460;13.528;2023-09-08T08:22:12;23.70;99.90
2124;DHT22;1068;52.460;13.528;2023-09-08T08:24:39;23.80;99.90
2124;DHT22;1068;52.460;13.528;2023-09-08T08:27:05;23.80;99.90
2124;DHT22;1068;52.460;13.528;2023-09-08T08:29:32;23.90;99.90
2124;DHT22;1068;52.460;13.528;2023-09-08T08:31:58;23.90;99.90
2124;DHT22;1068;52.460;13.528;2023-09-08T08:34:26;24.00;99.90
2124;DHT22;1068;52.460;13.528;2023-09-08T08:36:52;24.10;99.90
2124;DHT22;1068;52.460;13.528;2023-09-08T08:39:19;24.10;99.90
2124;DHT22;1068;52.460;13.528;2023-09-08T08:41:46;24.20;99.90
2124;DHT22;1068;52.460;13.528;2023-09-08T08:44:13;24.20;99.90
2124;DHT22;1068;52.460;13.528;2023-09-08T08:46:41;24.20;99.90
2124;DHT22;1068;52.460;13.528;2023-09-08T08:49:09;24.30;99.90
2124;DHT22;1068;52.460;13.528;2023-09-08T08:51:39;24.40;99.90
2124;DHT22;1068;52.460;13.528;2023-09-08T08:54:08;24.50;99.90
2124;DHT22;1068;52.460;13.528;2023-09-08T08:56:36;24.70;99.90
2124;DHT22;1068;52.460;13.528;2023-09-08T08:59:03;24.70;99.90
2124;DHT22;1068;52.460;13.528;2023-09-08T09:01:30;24.90;99.90
2124;DHT22;1068;52.460;13.528;2023-09-08T09:03:58;25.00;99.90
2124;DHT22;1068;52.460;13.528;2023-09-08T09:06:24;25.10;99.90
2124;DHT22;1068;52.460;13.528;2023-09-08T09:08:52;25.10;99.90
2124;DHT22;1068;52.460;13.528;2023-09-08T09:11:18;25.10;99.90
2124;DHT22;1068;52.460;13.528;2023-09-08T09:13:45;25.10;99.90
2124;DHT22;1068;52.460;13.528;2023-09-08T09:16:11;25.20;99.90
2124;DHT22;1068;52.460;13.528;2023-09-08T09:18:53;25.30;99.90
2124;DHT22;1068;52.460;13.528;2023-09-08T09:21:20;25.30;99.90
2124;DHT22;1068;52.460;13.528;2023-09-08T09:23:47;25.30;99.90
2124;DHT22;1068;52.460;13.528;2023-09-08T09:26:23;25.40;99.90
2124;DHT22;1068;52.460;13.528;2023-09-08T09:28:50;25.30;99.90
2124;DHT22;1068;52.460;13.528;2023-09-08T09:31:22;25.40;99.90
2124;DHT22;1068;52.460;13.528;2023-09-08T09:34:01;25.50;99.90
2124;DHT22;1068;52.460;13.528;2023-09-08T09:36:29;25.60;99.90
2124;DHT22;1068;52.460;13.528;2023-09-08T09:38:58;25.70;99.90
2124;DHT22;1068;52.460;13.528;2023-09-08T09:41:27;25.80;99.90
2124;DHT22;1068;52.460;13.528;2023-09-08T09:43:54;25.90;99.90
2124;DHT22;1068;52.460;13.528;2023-09-08T09:46:21;25.90;99.90
2124;DHT22;1068;52.460;13.528;2023-09-08T09:48:51;26.00;99.90
2124;DHT22;1068;52.460;13.528;2023-09-08T09:51:19;26.00;99.90
2124;DHT22;1068;52.460;13.528;2023-09-08T09:53:46;26.20;99.90
2124;DHT22;1068;52.460;13.528;2023-09-08T09:56:13;26.30;99.90
2124;DHT22;1068;52.460;13.528;2023-09-08T09:58:42;26.30;99.90
2124;DHT22;1068;52.460;13.528;2023-09-08T10:01:10;26.40;99.90
2124;DHT22;1068;52.460;13.528;2023-09-08T10:03:38;26.40;99.90
2124;DHT22;1068;52.460;13.528;2023-09-08T10:06:05;26.30;99.90
2124;DHT22;1068;52.460;13.528;2023-09-08T10:08:34;26.20;99.90
2124;DHT22;1068;52.460;13.528;2023-09-08T10:11:06;26.20;99.90
2124;DHT22;1068;52.460;13.528;2023-09-08T10:13:38;26.30;99.90
2124;DHT22;1068;52.460;13.528;2023-09-08T10:16:08;26.40;99.90
2124;DHT22;1068;52.460;13.528;2023-09-08T10:18:35;26.40;99.90
2124;DHT22;1068;52.460;13.528;2023-09-08T10:21:03;26.40;99.90
2124;DHT22;1068;52.460;13.528;2023-09-08T10:23:35;26.40;99.90
2124;DHT22;1068;52.460;13.528;2023-09-08T10:26:09;26.50;99.90
2124;DHT22;1068;52.460;13.528;2023-09-08T10:28:36;26.60;99.90
2124;DHT22;1068;52.460;13.528;2023-09-08T10:31:04;26.80;99.90
2124;DHT22;1068;52.460;13.528;2023-09-08T10:33:32;26.90;99.90
2124;DHT22;1068;52.460;13.528;2023-09-08T10:36:01;27.00;99.90
2124;DHT22;1068;52.460;13.528;2023-09-08T10:38:32;27.00;99.90
2124;DHT22;1068;52.460;13.528;2023-09-08T10:41:27;27.10;99.90
2124;DHT22;1068;52.460;13.528;2023-09-08T10:44:01;27.20;99.90
2124;DHT22;1068;52.460;13.528;2023-09-08T10:46:30;27.20;99.90
2124;DHT22;1068;52.460;13.528;2023-09-08T10:49:02;27.10;99.90
2124;DHT22;1068;52.460;13.528;2023-09-08T10:51:30;27.10;99.90
2124;DHT22;1068;52.460;13.528;2023-09-08T10:53:56;27.00;99.90
2124;DHT22;1068;52.460;13.528;2023-09-08T10:56:27;27.20;99.90
2124;DHT22;1068;52.460;13.528;2023-09-08T10:58:54;27.30;99.90
2124;DHT22;1068;52.460;13.528;2023-09-08T11:01:21;27.50;99.90
2124;DHT22;1068;52.460;13.528;2023-09-08T11:03:51;27.40;99.90
2124;DHT22;1068;52.460;13.528;2023-09-08T11:06:20;27.40;99.90
2124;DHT22;1068;52.460;13.528;2023-09-08T11:08:48;27.40;99.90
2124;DHT22;1068;52.460;13.528;2023-09-08T11:11:18;27.60;99.90
2124;DHT22;1068;52.460;13.528;2023-09-08T11:13:45;27.70;99.90
2124;DHT22;1068;52.460;13.528;2023-09-08T11:16:13;27.70;99.90
2124;DHT22;1068;52.460;13.528;2023-09-08T11:18:40;27.70;99.90
2124;DHT22;1068;52.460;13.528;2023-09-08T11:21:08;27.80;99.90
2124;DHT22;1068;52.460;13.528;2023-09-08T11:23:37;27.90;99.90
2124;DHT22;1068;52.460;13.528;2023-09-08T11:26:04;27.90;99.90
2124;DHT22;1068;52.460;13.528;2023-09-08T11:28:32;27.90;99.90
2124;DHT22;1068;52.460;13.528;2023-09-08T11:30:58;28.00;99.90
2124;DHT22;1068;52.460;13.528;2023-09-08T11:33:25;28.10;99.90
2124;DHT22;1068;52.460;13.528;2023-09-08T11:35:52;28.10;99.90
2124;DHT22;1068;52.460;13.528;2023-09-08T11:38:23;28.10;99.90
2124;DHT22;1068;52.460;13.528;2023-09-08T11:40:52;27.80;99.90
2124;DHT22;1068;52.460;13.528;2023-09-08T11:43:19;27.90;99.90
2124;DHT22;1068;52.460;13.528;2023-09-08T11:45:45;28.10;99.90
2124;DHT22;1068;52.460;13.528;2023-09-08T11:48:13;28.20;99.90
2124;DHT22;1068;52.460;13.528;2023-09-08T11:50:41;28.20;99.90
2124;DHT22;1068;52.460;13.528;2023-09-08T11:53:08;28.00;99.90
2124;DHT22;1068;52.460;13.528;2023-09-08T11:55:34;28.10;99.90
2124;DHT22;1068;52.460;13.528;2023-09-08T11:58:03;28.20;99.90
2124;DHT22;1068;52.460;13.528;2023-09-08T12:00:30;28.20;99.90
2124;DHT22;1068;52.460;13.528;2023-09-08T12:03:09;28.30;99.90
2124;DHT22;1068;52.460;13.528;2023-09-08T12:05:36;28.40;99.90
2124;DHT22;1068;52.460;13.528;2023-09-08T12:08:04;28.50;99.90
2124;DHT22;1068;52.460;13.528;2023-09-08T12:10:37;28.40;99.90
2124;DHT22;1068;52.460;13.528;2023-09-08T12:13:05;28.20;99.90
2124;DHT22;1068;52.460;13.528;2023-09-08T12:15:33;28.30;99.90
2124;DHT22;1068;52.460;13.528;2023-09-08T12:18:01;28.50;99.90
2124;DHT22;1068;52.460;13.528;2023-09-08T12:20:28;28.60;99.90
2124;DHT22;1068;52.460;13.528;2023-09-08T12:22:58;28.70;99.70
2124;DHT22;1068;52.460;13.528;2023-09-08T12:25:25;28.70;98.90
2124;DHT22;1068;52.460;13.528;2023-09-08T12:27:53;28.60;99.00
2124;DHT22;1068;52.460;13.528;2023-09-08T12:30:23;28.70;99.00
2124;DHT22;1068;52.460;13.528;2023-09-08T12:32:56;28.90;98.80
2124;DHT22;1068;52.460;13.528;2023-09-08T12:35:23;29.10;99.10
2124;DHT22;1068;52.460;13.528;2023-09-08T12:37:59;29.00;98.40
2124;DHT22;1068;52.460;13.528;2023-09-08T12:40:26;29.10;97.40
2124;DHT22;1068;52.460;13.528;2023-09-08T12:42:53;28.80;97.00
2124;DHT22;1068;52.460;13.528;2023-09-08T12:45:22;28.80;96.90
2124;DHT22;1068;52.460;13.528;2023-09-08T12:47:49;28.90;97.50
2124;DHT22;1068;52.460;13.528;2023-09-08T12:50:15;28.80;95.50
2124;DHT22;1068;52.460;13.528;2023-09-08T12:52:42;28.80;96.70
2124;DHT22;1068;52.460;13.528;2023-09-08T12:55:09;29.00;94.90
2124;DHT22;1068;52.460;13.528;2023-09-08T12:57:35;29.00;95.00
2124;DHT22;1068;52.460;13.528;2023-09-08T13:00:03;29.10;95.60
2124;DHT22;1068;52.460;13.528;2023-09-08T13:02:31;29.20;95.30
2124;DHT22;1068;52.460;13.528;2023-09-08T13:04:58;29.00;95.00
2124;DHT22;1068;52.460;13.528;2023-09-08T13:07:26;29.00;94.50
2124;DHT22;1068;52.460;13.528;2023-09-08T13:09:52;29.10;93.40
2124;DHT22;1068;52.460;13.528;2023-09-08T13:12:19;29.00;92.40
2124;DHT22;1068;52.460;13.528;2023-09-08T13:14:46;29.00;93.70
2124;DHT22;1068;52.460;13.528;2023-09-08T13:17:13;29.10;94.00
2124;DHT22;1068;52.460;13.528;2023-09-08T13:19:41;29.20;93.10
2124;DHT22;1068;52.460;13.528;2023-09-08T13:22:08;29.00;92.10
2124;DHT22;1068;52.460;13.528;2023-09-08T13:24:36;29.10;92.70
2124;DHT22;1068;52.460;13.528;2023-09-08T13:27:03;29.20;92.70
2124;DHT22;1068;52.460;13.528;2023-09-08T13:29:29;29.40;92.60
2124;DHT22;1068;52.460;13.528;2023-09-08T13:31:56;29.40;92.20
2124;DHT22;1068;52.460;13.528;2023-09-08T13:34:23;29.50;92.50
2124;DHT22;1068;52.460;13.528;2023-09-08T13:36:51;29.40;90.40
2124;DHT22;1068;52.460;13.528;2023-09-08T13:39:18;29.30;90.20
2124;DHT22;1068;52.460;13.528;2023-09-08T13:41:50;29.40;90.30
2124;DHT22;1068;52.460;13.528;2023-09-08T13:44:17;29.40;90.00
2124;DHT22;1068;52.460;13.528;2023-09-08T13:46:45;29.30;89.10
2124;DHT22;1068;52.460;13.528;2023-09-08T13:49:11;29.30;89.50
2124;DHT22;1068;52.460;13.528;2023-09-08T13:51:38;29.30;89.10
2124;DHT22;1068;52.460;13.528;2023-09-08T13:54:06;29.50;87.90
2124;DHT22;1068;52.460;13.528;2023-09-08T13:56:33;29.60;86.80
2124;DHT22;1068;52.460;13.528;2023-09-08T13:59:00;29.60;86.10
2124;DHT22;1068;52.460;13.528;2023-09-08T14:01:27;29.70;88.20
2124;DHT22;1068;52.460;13.528;2023-09-08T14:03:54;29.80;87.80
2124;DHT22;1068;52.460;13.528;2023-09-08T14:06:21;30.00;86.20
2124;DHT22;1068;52.460;13.528;2023-09-08T14:08:48;29.90;84.00
2124;DHT22;1068;52.460;13.528;2023-09-08T14:11:15;29.80;83.70
2124;DHT22;1068;52.460;13.528;2023-09-08T14:13:42;29.50;83.70
2124;DHT22;1068;52.460;13.528;2023-09-08T14:16:09;29.40;84.60
2124;DHT22;1068;52.460;13.528;2023-09-08T14:18:35;29.50;83.90
2124;DHT22;1068;52.460;13.528;2023-09-08T14:21:02;29.40;82.60
2124;DHT22;1068;52.460;13.528;2023-09-08T14:23:29;29.60;82.90
2124;DHT22;1068;52.460;13.528;2023-09-08T14:25:56;29.50;82.00
2124;DHT22;1068;52.460;13.528;2023-09-08T14:28:24;29.50;82.60
2124;DHT22;1068;52.460;13.528;2023-09-08T14:30:51;29.40;80.80
2124;DHT22;1068;52.460;13.528;2023-09-08T14:33:18;29.50;81.80
2124;DHT22;1068;52.460;13.528;2023-09-08T14:35:45;29.60;82.70
2124;DHT22;1068;52.460;13.528;2023-09-08T14:38:17;29.60;81.20
2124;DHT22;1068;52.460;13.528;2023-09-08T14:40:43;29.70;81.40
2124;DHT22;1068;52.460;13.528;2023-09-08T14:43:10;29.70;79.80
2124;DHT22;1068;52.460;13.528;2023-09-08T14:45:38;29.50;80.60
2124;DHT22;1068;52.460;13.528;2023-09-08T14:48:05;29.60;80.50
2124;DHT22;1068;52.460;13.528;2023-09-08T14:50:31;29.50;80.40
2124;DHT22;1068;52.460;13.528;2023-09-08T14:52:58;29.50;79.20
2124;DHT22;1068;52.460;13.528;2023-09-08T14:55:24;29.40;80.80
2124;DHT22;1068;52.460;13.528;2023-09-08T14:57:51;29.40;81.30
2124;DHT22;1068;52.460;13.528;2023-09-08T15:00:17;29.50;81.20
2124;DHT22;1068;52.460;13.528;2023-09-08T15:02:45;29.50;80.80
2124;DHT22;1068;52.460;13.528;2023-09-08T15:05:12;29.60;81.20
2124;DHT22;1068;52.460;13.528;2023-09-08T15:07:39;29.60;81.10
2124;DHT22;1068;52.460;13.528;2023-09-08T15:10:06;29.60;81.50
2124;DHT22;1068;52.460;13.528;2023-09-08T15:12:32;29.60;81.70
2124;DHT22;1068;52.460;13.528;2023-09-08T15:14:59;29.70;82.70
2124;DHT22;1068;52.460;13.528;2023-09-08T15:17:25;29.60;82.40
2124;DHT22;1068;52.460;13.528;2023-09-08T15:19:53;29.60;81.80
2124;DHT22;1068;52.460;13.528;2023-09-08T15:22:19;29.40;81.60
2124;DHT22;1068;52.460;13.528;2023-09-08T15:24:46;29.20;81.80
2124;DHT22;1068;52.460;13.528;2023-09-08T15:27:12;29.00;80.40
2124;DHT22;1068;52.460;13.528;2023-09-08T15:29:39;28.90;80.60
2124;DHT22;1068;52.460;13.528;2023-09-08T15:32:06;28.90;80.30
2124;DHT22;1068;52.460;13.528;2023-09-08T15:34:33;28.90;79.70
2124;DHT22;1068;52.460;13.528;2023-09-08T15:37:01;28.80;80.30
2124;DHT22;1068;52.460;13.528;2023-09-08T15:39:27;28.80;82.00
2124;DHT22;1068;52.460;13.528;2023-09-08T15:41:54;28.90;82.20
2124;DHT22;1068;52.460;13.528;2023-09-08T15:44:20;28.90;81.40
2124;DHT22;1068;52.460;13.528;2023-09-08T15:46:47;28.70;84.20